Perrine, Florida
Current Conditions -  °F | °C
As of 7:53 PM on Friday 28 Nov 2014 (Local Time) from KTMB Reporting Station
Clear Clear  
Wind Chill: 61°   Ceiling: Unl
Heat Index: 61°   Visibility: 10mi
Dew Point: 52°   Wind: 10mph
Humidity: 72%   Direction: 350°N
Pressure: 30.2"   Gusts: NA
Location:  25.61°N, 80.35°W
Report Text: KTMB 290053Z 35009KT 10SM CLR 16/11 A3020 RMK AO2 SLP224 T01610111
Loading
Personal Weather Stations






























Interactive Weather Map New forecast layout! Learn more

10-Day Weather Forecast

Advertisements
Track Severe Weather on mobile